createdAt,value
2023-05-22T00:00:28.155Z,15.90
2023-05-22T00:01:28.154Z,15.80
2023-05-22T00:02:28.195Z,15.90
2023-05-22T00:03:28.193Z,15.70
2023-05-22T00:04:28.128Z,15.70
2023-05-22T00:05:28.137Z,15.30
2023-05-22T00:06:28.113Z,15.70
2023-05-22T00:07:28.144Z,16.20
2023-05-22T00:08:29.726Z,15.40
2023-05-22T00:09:28.094Z,14.90
2023-05-22T00:10:28.093Z,16.30
2023-05-22T00:11:28.111Z,15.70
2023-05-22T00:12:28.116Z,16.00
2023-05-22T00:13:28.065Z,16.40
2023-05-22T00:14:28.053Z,16.30
2023-05-22T00:15:28.061Z,16.60
2023-05-22T00:16:28.085Z,16.40
2023-05-22T00:17:28.054Z,16.30
2023-05-22T00:18:28.076Z,15.90
2023-05-22T00:19:28.115Z,17.20
2023-05-22T00:20:28.015Z,16.50
2023-05-22T00:21:28.016Z,17.10
2023-05-22T00:22:28.036Z,16.10
2023-05-22T00:23:28.032Z,17.20
2023-05-22T00:24:27.993Z,17.20
2023-05-22T00:25:27.978Z,20.30
2023-05-22T00:26:28.009Z,16.50
2023-05-22T00:27:27.987Z,16.80
2023-05-22T00:28:28.023Z,17.00
2023-05-22T00:29:27.934Z,16.90
2023-05-22T00:30:27.933Z,17.20
2023-05-22T00:31:27.939Z,17.50
2023-05-22T00:32:27.979Z,17.10
2023-05-22T00:33:27.945Z,17.30
2023-05-22T00:34:27.983Z,17.70
2023-05-22T00:35:27.923Z,17.40
2023-05-22T00:36:27.899Z,17.50
2023-05-22T00:37:27.898Z,17.20
2023-05-22T00:38:27.901Z,17.80
2023-05-22T00:39:27.917Z,18.40
2023-05-22T00:40:27.880Z,18.60
2023-05-22T00:41:27.898Z,16.90
2023-05-22T00:42:27.856Z,17.00
2023-05-22T00:43:27.857Z,17.50
2023-05-22T00:44:27.880Z,18.40
2023-05-22T00:45:27.842Z,18.10
2023-05-22T00:46:27.870Z,18.20
2023-05-22T00:47:27.961Z,18.50
2023-05-22T00:48:27.835Z,22.00
2023-05-22T00:49:27.882Z,18.30
2023-05-22T00:50:27.815Z,17.30
2023-05-22T00:51:27.798Z,18.20
2023-05-22T00:52:27.798Z,18.40
2023-05-22T00:53:27.778Z,18.20
2023-05-22T00:54:27.790Z,18.10
2023-05-22T00:55:27.859Z,17.80
2023-05-22T00:56:27.764Z,18.30
2023-05-22T00:57:27.759Z,17.60
2023-05-22T00:58:27.775Z,18.80
2023-05-22T00:59:27.782Z,19.30
2023-05-22T01:00:27.779Z,17.80
2023-05-22T01:01:27.742Z,18.20
2023-05-22T01:02:27.719Z,18.50
2023-05-22T01:03:27.894Z,17.90
2023-05-22T01:04:27.697Z,18.70
2023-05-22T01:05:27.737Z,18.40
2023-05-22T01:06:27.711Z,17.80
2023-05-22T01:07:27.712Z,18.30
2023-05-22T01:08:27.691Z,18.80
2023-05-22T01:09:27.659Z,18.50
2023-05-22T01:10:27.663Z,18.60
2023-05-22T01:11:27.696Z,18.50
2023-05-22T01:12:27.811Z,19.20
2023-05-22T01:13:27.634Z,19.20
2023-05-22T01:14:27.623Z,18.50
2023-05-22T01:15:27.616Z,18.40
2023-05-22T01:16:27.642Z,19.10
2023-05-22T01:17:27.651Z,18.70
2023-05-22T01:18:27.604Z,19.40
2023-05-22T01:19:27.729Z,20.20
2023-05-22T01:20:27.577Z,19.60
2023-05-22T01:21:27.592Z,18.80
2023-05-22T01:22:27.576Z,18.90
2023-05-22T01:23:27.568Z,19.60
2023-05-22T01:24:27.554Z,19.70
2023-05-22T01:25:27.515Z,19.30
2023-05-22T01:26:27.589Z,20.10
2023-05-22T01:27:27.543Z,19.30
2023-05-22T01:28:27.667Z,19.90
2023-05-22T01:29:27.506Z,21.20
2023-05-22T01:30:27.485Z,19.80
2023-05-22T01:31:27.549Z,19.40
2023-05-22T01:32:27.535Z,19.40
2023-05-22T01:33:27.590Z,19.70
2023-05-22T01:34:27.491Z,18.60
2023-05-22T01:35:27.468Z,19.60
2023-05-22T01:36:27.470Z,20.90
2023-05-22T01:37:27.559Z,20.40
2023-05-22T01:38:27.447Z,19.70
2023-05-22T01:39:27.436Z,20.20
2023-05-22T01:40:27.487Z,20.80
2023-05-22T01:41:27.440Z,20.80
2023-05-22T01:42:27.469Z,20.70
2023-05-22T01:43:27.423Z,20.90
2023-05-22T01:44:27.412Z,20.30
2023-05-22T01:45:27.436Z,21.70
2023-05-22T01:46:27.435Z,21.60
2023-05-22T01:47:27.442Z,21.00
2023-05-22T01:48:27.398Z,20.90
2023-05-22T01:49:27.384Z,20.60
2023-05-22T01:50:27.359Z,21.20
2023-05-22T01:51:27.366Z,21.10
2023-05-22T01:52:27.363Z,20.70
2023-05-22T01:53:27.404Z,20.70
2023-05-22T01:54:27.328Z,20.50
2023-05-22T01:55:27.333Z,20.50
2023-05-22T01:56:27.310Z,20.70
2023-05-22T01:57:27.308Z,20.60
2023-05-22T01:58:27.366Z,20.40
2023-05-22T01:59:27.307Z,20.30
2023-05-22T02:00:27.284Z,22.10
2023-05-22T02:01:27.327Z,22.30
2023-05-22T02:02:27.375Z,20.50
2023-05-22T02:03:27.459Z,21.40
2023-05-22T02:04:27.269Z,20.60
2023-05-22T02:05:27.259Z,23.30
2023-05-22T02:06:27.255Z,20.50
2023-05-22T02:07:27.235Z,20.80
2023-05-22T02:08:27.236Z,20.90
2023-05-22T02:09:27.286Z,20.60
2023-05-22T02:10:27.222Z,21.00
2023-05-22T02:11:27.241Z,20.90
2023-05-22T02:12:27.206Z,20.50
2023-05-22T02:13:27.214Z,21.10
2023-05-22T02:14:27.219Z,20.40
2023-05-22T02:15:27.259Z,21.60
2023-05-22T02:16:27.159Z,21.20
2023-05-22T02:17:27.202Z,20.50
2023-05-22T02:18:27.172Z,20.90
2023-05-22T02:19:27.262Z,19.40
2023-05-22T02:20:27.171Z,20.30
2023-05-22T02:21:27.127Z,20.10
2023-05-22T02:22:27.118Z,21.10
2023-05-22T02:23:27.131Z,20.00
2023-05-22T02:24:27.126Z,21.00
2023-05-22T02:25:27.248Z,19.90
2023-05-22T02:26:27.094Z,20.20
2023-05-22T02:27:27.099Z,20.90
2023-05-22T02:28:27.070Z,20.70
2023-05-22T02:29:27.092Z,19.60
2023-05-22T02:30:27.108Z,21.70
2023-05-22T02:31:27.159Z,20.80
2023-05-22T02:32:27.098Z,20.20
2023-05-22T02:33:27.072Z,20.30
2023-05-22T02:34:27.034Z,21.10
2023-05-22T02:35:27.115Z,21.90
2023-05-22T02:36:27.022Z,21.70
2023-05-22T02:37:27.013Z,21.40
2023-05-22T02:38:27.030Z,20.60
2023-05-22T02:39:27.024Z,21.00
2023-05-22T02:40:27.001Z,21.40
2023-05-22T02:41:27.078Z,21.00
2023-05-22T02:42:26.996Z,21.50
2023-05-22T02:43:26.989Z,21.20
2023-05-22T02:44:26.964Z,20.40
2023-05-22T02:45:26.949Z,21.70
2023-05-22T02:46:27.162Z,21.50
2023-05-22T02:47:26.983Z,22.80
2023-05-22T02:48:26.928Z,22.20
2023-05-22T02:49:26.953Z,21.30
2023-05-22T02:50:26.945Z,21.40
2023-05-22T02:51:26.981Z,21.40
2023-05-22T02:52:26.897Z,22.10
2023-05-22T02:53:26.977Z,22.40
2023-05-22T02:54:26.936Z,23.00
2023-05-22T02:55:26.909Z,22.00
2023-05-22T02:56:26.950Z,22.10
2023-05-22T02:57:27.031Z,22.40
2023-05-22T02:58:26.904Z,21.40
2023-05-22T02:59:26.926Z,22.10
2023-05-22T03:00:26.935Z,21.00
2023-05-22T03:01:26.970Z,22.30
2023-05-22T03:02:27.011Z,23.20
2023-05-22T03:03:27.103Z,21.50
2023-05-22T03:04:26.841Z,22.90
2023-05-22T03:05:26.815Z,22.40
2023-05-22T03:06:26.853Z,22.80
2023-05-22T03:07:26.888Z,21.40
2023-05-22T03:08:26.823Z,22.10
2023-05-22T03:09:26.824Z,22.80
2023-05-22T03:10:26.828Z,22.40
2023-05-22T03:11:26.797Z,23.20
2023-05-22T03:12:26.784Z,22.10
2023-05-22T03:13:26.798Z,23.40
2023-05-22T03:14:26.736Z,22.30
2023-05-22T03:15:26.768Z,23.20
2023-05-22T03:16:26.923Z,22.30
2023-05-22T03:17:26.767Z,22.40
2023-05-22T03:18:27.803Z,21.90
2023-05-22T03:19:27.054Z,21.50
2023-05-22T03:20:26.737Z,21.80
2023-05-22T03:21:26.691Z,22.70
2023-05-22T03:22:26.742Z,22.80
2023-05-22T03:23:26.731Z,22.50
2023-05-22T03:24:26.697Z,22.60
2023-05-22T03:25:26.678Z,22.10
2023-05-22T03:26:26.689Z,22.70
2023-05-22T03:27:26.668Z,22.20
2023-05-22T03:28:26.700Z,22.60
2023-05-22T03:29:26.722Z,22.00
2023-05-22T03:30:26.671Z,23.00
2023-05-22T03:31:26.658Z,22.70
2023-05-22T03:32:26.784Z,22.10
2023-05-22T03:33:26.703Z,23.60
2023-05-22T03:34:26.672Z,22.80
2023-05-22T03:35:26.610Z,23.20
2023-05-22T03:36:26.627Z,23.60
2023-05-22T03:37:26.600Z,23.10
2023-05-22T03:38:26.577Z,23.70
2023-05-22T03:39:26.636Z,23.10
2023-05-22T03:40:26.583Z,23.60
2023-05-22T03:41:26.636Z,23.60
2023-05-22T03:42:26.588Z,23.30
2023-05-22T03:43:26.554Z,23.00
2023-05-22T03:44:26.584Z,22.60
2023-05-22T03:45:26.664Z,22.40
2023-05-22T03:46:26.669Z,23.40
2023-05-22T03:47:26.563Z,23.00
2023-05-22T03:48:26.543Z,23.60
2023-05-22T03:49:26.532Z,24.30
2023-05-22T03:50:26.577Z,23.30
2023-05-22T03:51:26.497Z,23.60
2023-05-22T03:52:26.494Z,23.20
2023-05-22T03:53:26.492Z,22.80
2023-05-22T03:54:26.468Z,22.90
2023-05-22T03:55:26.524Z,22.50
2023-05-22T03:56:26.481Z,23.80
2023-05-22T03:57:26.481Z,22.30
2023-05-22T03:58:26.445Z,23.40
2023-05-22T03:59:26.440Z,23.00
2023-05-22T04:00:26.939Z,22.80
2023-05-22T04:01:26.483Z,22.40
2023-05-22T04:02:26.541Z,22.50
2023-05-22T04:03:26.615Z,23.70
2023-05-22T04:04:26.410Z,23.10
2023-05-22T04:05:26.468Z,23.40
2023-05-22T04:06:26.442Z,23.40
2023-05-22T04:07:26.405Z,22.10
2023-05-22T04:08:26.386Z,23.50
2023-05-22T04:09:26.398Z,22.20
2023-05-22T04:10:26.381Z,22.20
2023-05-22T04:11:26.397Z,22.70
2023-05-22T04:12:26.369Z,22.20
2023-05-22T04:13:26.363Z,22.20
2023-05-22T04:14:26.358Z,22.70
2023-05-22T04:15:26.343Z,23.70
2023-05-22T04:16:26.441Z,21.90
2023-05-22T04:17:26.398Z,22.00
2023-05-22T04:18:26.334Z,21.50
2023-05-22T04:19:26.332Z,22.10
2023-05-22T04:20:26.311Z,21.40
2023-05-22T04:21:26.287Z,22.70
2023-05-22T04:22:26.354Z,21.30
2023-05-22T04:23:26.288Z,21.40
2023-05-22T04:24:26.299Z,20.60
2023-05-22T04:25:26.340Z,21.10
2023-05-22T04:26:26.298Z,21.30
2023-05-22T04:27:26.321Z,21.20
2023-05-22T04:28:26.246Z,21.30
2023-05-22T04:29:26.239Z,20.80
2023-05-22T04:30:26.228Z,20.30
2023-05-22T04:31:26.384Z,21.60
2023-05-22T04:32:26.319Z,20.10
2023-05-22T04:33:26.235Z,19.60
2023-05-22T04:34:26.243Z,20.30
2023-05-22T04:35:26.200Z,20.70
2023-05-22T04:36:26.283Z,20.10
2023-05-22T04:37:26.188Z,20.10
2023-05-22T04:38:26.232Z,18.70
2023-05-22T04:39:26.285Z,20.00
2023-05-22T04:40:26.215Z,20.10
2023-05-22T04:41:26.178Z,19.10
2023-05-22T04:42:26.168Z,18.10
2023-05-22T04:43:26.211Z,19.90
2023-05-22T04:44:26.165Z,19.60
2023-05-22T04:45:26.152Z,18.30
2023-05-22T04:46:26.180Z,19.30
2023-05-22T04:47:26.193Z,17.60
2023-05-22T04:48:26.700Z,18.40
2023-05-22T04:49:26.245Z,17.90
2023-05-22T04:50:26.112Z,19.40
2023-05-22T04:51:26.108Z,18.20
2023-05-22T04:52:26.130Z,17.90
2023-05-22T04:53:26.086Z,17.50
2023-05-22T04:54:26.104Z,18.30
2023-05-22T04:55:26.076Z,17.90
2023-05-22T04:56:35.280Z,17.80
2023-05-22T04:57:27.083Z,18.50
2023-05-22T04:58:26.071Z,18.20
2023-05-22T04:59:26.088Z,17.90
2023-05-22T05:00:26.048Z,18.40
2023-05-22T05:01:26.062Z,18.50
2023-05-22T05:02:26.156Z,18.20
2023-05-22T05:03:26.046Z,18.30
2023-05-22T05:04:26.073Z,18.10
2023-05-22T05:05:26.025Z,17.90
2023-05-22T05:06:26.025Z,16.80
2023-05-22T05:07:25.997Z,17.10
2023-05-22T05:08:25.994Z,17.00
2023-05-22T05:09:26.087Z,17.10
2023-05-22T05:10:25.995Z,16.60
2023-05-22T05:11:26.066Z,16.70
2023-05-22T05:12:25.941Z,16.60
2023-05-22T05:13:25.932Z,16.80
2023-05-22T05:14:25.929Z,17.20
2023-05-22T05:15:25.969Z,16.00
2023-05-22T05:16:25.942Z,17.10
2023-05-22T05:17:26.051Z,16.90
2023-05-22T05:18:25.912Z,16.50
2023-05-22T05:19:25.934Z,17.30
2023-05-22T05:20:25.937Z,16.40
2023-05-22T05:21:25.898Z,16.10
2023-05-22T05:22:25.922Z,15.50
2023-05-22T05:23:25.950Z,15.80
2023-05-22T05:24:25.922Z,15.30
2023-05-22T05:25:25.925Z,16.20
2023-05-22T05:26:25.849Z,15.90
2023-05-22T05:27:25.868Z,16.00
2023-05-22T05:28:25.853Z,14.90
2023-05-22T05:29:25.848Z,16.10
2023-05-22T05:30:25.853Z,15.00
2023-05-22T05:31:25.903Z,15.00
2023-05-22T05:32:25.971Z,16.30
2023-05-22T05:33:25.854Z,15.90
2023-05-22T05:34:25.850Z,15.70
2023-05-22T05:35:25.894Z,15.60
2023-05-22T05:36:25.891Z,15.70
2023-05-22T05:37:25.813Z,15.60
2023-05-22T05:38:25.895Z,14.80
2023-05-22T05:39:25.785Z,14.90
2023-05-22T05:40:25.756Z,15.40
2023-05-22T05:41:25.763Z,14.50
2023-05-22T05:42:25.734Z,15.90
2023-05-22T05:43:25.750Z,14.30
2023-05-22T05:44:25.723Z,14.00
2023-05-22T05:45:25.716Z,14.60
2023-05-22T05:46:25.740Z,14.70
2023-05-22T05:47:25.732Z,16.00
2023-05-22T05:48:25.684Z,16.10
2023-05-22T05:49:25.706Z,14.60
2023-05-22T05:50:25.679Z,14.90
2023-05-22T05:51:25.666Z,15.20
2023-05-22T05:52:25.664Z,15.50
2023-05-22T05:53:25.633Z,15.60
2023-05-22T05:54:25.674Z,15.30
2023-05-22T05:55:25.632Z,14.50
2023-05-22T05:56:25.614Z,14.30
2023-05-22T05:57:25.639Z,15.00
2023-05-22T05:58:25.609Z,14.70
2023-05-22T05:59:25.603Z,14.80
2023-05-22T06:00:25.604Z,14.60
2023-05-22T06:01:25.632Z,15.20
2023-05-22T06:02:25.687Z,14.90
2023-05-22T06:03:25.752Z,15.30
2023-05-22T06:04:25.596Z,14.70
2023-05-22T06:05:25.575Z,14.10
2023-05-22T06:06:25.558Z,14.30
2023-05-22T06:07:25.527Z,14.50
2023-05-22T06:08:25.587Z,14.30
2023-05-22T06:09:25.585Z,14.20
2023-05-22T06:10:25.600Z,14.30
2023-05-22T06:11:25.533Z,14.20
2023-05-22T06:12:25.524Z,15.30
2023-05-22T06:13:25.534Z,14.30
2023-05-22T06:14:25.505Z,14.80
2023-05-22T06:15:25.504Z,15.30
2023-05-22T06:16:25.571Z,14.30
2023-05-22T06:17:25.513Z,15.10
2023-05-22T06:18:25.507Z,14.10
2023-05-22T06:19:25.592Z,15.40
2023-05-22T06:20:25.600Z,14.70
2023-05-22T06:21:25.436Z,14.30
2023-05-22T06:22:25.439Z,14.50
2023-05-22T06:23:25.442Z,13.90
2023-05-22T06:24:25.492Z,14.20
2023-05-22T06:25:25.406Z,13.50
2023-05-22T06:26:25.387Z,13.30
2023-05-22T06:27:25.391Z,14.90
2023-05-22T06:28:25.412Z,13.60
2023-05-22T06:29:25.425Z,14.10
2023-05-22T06:30:38.234Z,13.00
2023-05-22T06:31:26.375Z,13.60
2023-05-22T06:32:25.461Z,14.10
2023-05-22T06:33:25.460Z,13.60
2023-05-22T06:34:25.466Z,13.10
2023-05-22T06:35:25.405Z,13.60
2023-05-22T06:36:25.319Z,14.10
2023-05-22T06:37:25.336Z,13.90
2023-05-22T06:38:25.324Z,13.90
2023-05-22T06:39:25.300Z,12.90
2023-05-22T06:40:25.347Z,13.20
2023-05-22T06:41:25.372Z,13.50
2023-05-22T06:42:25.304Z,13.20
2023-05-22T06:43:25.278Z,13.70
2023-05-22T06:44:25.290Z,13.20
2023-05-22T06:45:25.311Z,13.40
2023-05-22T06:46:26.147Z,13.10
2023-05-22T06:47:25.331Z,12.80
2023-05-22T06:48:25.250Z,12.40
2023-05-22T06:49:25.244Z,13.40
2023-05-22T06:50:25.318Z,12.60
2023-05-22T06:51:25.233Z,12.80
2023-05-22T06:52:25.215Z,13.40
2023-05-22T06:53:25.215Z,12.50
2023-05-22T06:54:25.195Z,13.00
2023-05-22T06:55:25.199Z,12.90
2023-05-22T06:56:25.232Z,12.10
2023-05-22T06:57:25.203Z,13.20
2023-05-22T06:58:25.181Z,12.90
2023-05-22T06:59:25.161Z,12.00
2023-05-22T07:00:25.187Z,13.20
2023-05-22T07:01:25.285Z,12.30
2023-05-22T07:02:25.169Z,12.40
2023-05-22T07:03:25.162Z,12.10
2023-05-22T07:04:25.145Z,12.50
2023-05-22T07:05:25.265Z,12.70
2023-05-22T07:06:25.187Z,12.50
2023-05-22T07:07:25.157Z,12.30
2023-05-22T07:08:25.143Z,13.10
2023-05-22T07:09:25.120Z,12.50
2023-05-22T07:10:25.083Z,12.70
2023-05-22T07:11:25.070Z,12.80
2023-05-22T07:12:25.127Z,12.50
2023-05-22T07:13:25.177Z,12.80
2023-05-22T07:14:25.089Z,12.70
2023-05-22T07:15:25.050Z,12.50
2023-05-22T07:16:25.087Z,12.20
2023-05-22T07:17:25.084Z,12.50
2023-05-22T07:18:25.062Z,12.70
2023-05-22T07:19:25.057Z,12.30
2023-05-22T07:20:25.066Z,12.30
2023-05-22T07:21:25.002Z,12.70
2023-05-22T07:22:25.040Z,12.10
2023-05-22T07:23:26.349Z,12.70
2023-05-22T07:24:25.023Z,12.60
2023-05-22T07:25:24.994Z,14.40
2023-05-22T07:26:24.958Z,11.30
2023-05-22T07:27:25.006Z,11.10
2023-05-22T07:28:24.957Z,11.70
2023-05-22T07:29:24.984Z,11.40
2023-05-22T07:30:24.985Z,12.40
2023-05-22T07:31:24.967Z,11.20
2023-05-22T07:32:24.971Z,11.70
2023-05-22T07:33:24.984Z,11.50
2023-05-22T07:34:24.959Z,11.40
2023-05-22T07:35:24.928Z,10.70
2023-05-22T07:36:24.917Z,11.10
2023-05-22T07:37:24.917Z,11.40
2023-05-22T07:38:24.965Z,11.10
2023-05-22T07:39:24.905Z,10.90
2023-05-22T07:40:26.564Z,11.30
2023-05-22T07:41:24.861Z,11.50
2023-05-22T07:42:24.879Z,10.40
2023-05-22T07:43:24.896Z,10.60
2023-05-22T07:44:24.870Z,11.30
2023-05-22T07:45:24.925Z,11.10
2023-05-22T07:46:24.883Z,10.30
2023-05-22T07:47:24.864Z,11.00
2023-05-22T07:48:24.849Z,11.70
2023-05-22T07:49:24.906Z,11.50
2023-05-22T07:50:24.878Z,11.40
2023-05-22T07:51:24.799Z,10.80
2023-05-22T07:52:24.797Z,10.90
2023-05-22T07:53:24.797Z,11.10
2023-05-22T07:54:24.870Z,12.60
2023-05-22T07:55:24.798Z,10.70
2023-05-22T07:56:24.775Z,11.00
2023-05-22T07:57:24.780Z,10.80
2023-05-22T07:58:24.780Z,11.40
2023-05-22T07:59:25.197Z,11.70
2023-05-22T08:00:24.753Z,10.60
2023-05-22T08:01:24.788Z,11.10
2023-05-22T08:02:24.820Z,11.50
2023-05-22T08:03:24.807Z,11.10
2023-05-22T08:04:24.797Z,11.30
2023-05-22T08:05:24.827Z,10.70
2023-05-22T08:06:24.744Z,10.80
2023-05-22T08:07:24.693Z,11.10
2023-05-22T08:08:24.677Z,11.60
2023-05-22T08:09:24.655Z,10.50
2023-05-22T08:10:26.449Z,10.80
2023-05-22T08:11:24.675Z,10.60
2023-05-22T08:12:24.670Z,10.40
2023-05-22T08:13:24.654Z,10.70
2023-05-22T08:14:24.663Z,10.10
2023-05-22T08:15:24.683Z,9.90
2023-05-22T08:16:24.730Z,9.70
2023-05-22T08:17:24.921Z,9.90
2023-05-22T08:18:24.631Z,10.10
2023-05-22T08:19:24.630Z,10.00
2023-05-22T08:20:24.646Z,9.50
2023-05-22T08:21:24.637Z,9.90
2023-05-22T08:22:24.610Z,9.50
2023-05-22T08:23:24.617Z,9.90
2023-05-22T08:24:24.586Z,10.20
2023-05-22T08:25:24.556Z,10.00
2023-05-22T08:26:24.573Z,10.10
2023-05-22T08:27:24.569Z,10.30
2023-05-22T08:28:24.588Z,9.70
2023-05-22T08:29:24.536Z,10.00
2023-05-22T08:30:24.637Z,10.30
2023-05-22T08:31:24.625Z,10.30
2023-05-22T08:32:24.559Z,10.10
2023-05-22T08:33:24.522Z,11.30
2023-05-22T08:34:24.592Z,10.50
2023-05-22T08:35:24.495Z,11.60
2023-05-22T08:36:24.553Z,10.60
2023-05-22T08:37:24.545Z,12.10
2023-05-22T08:38:24.474Z,12.20
2023-05-22T08:39:24.475Z,11.00
2023-05-22T08:40:24.638Z,10.50
2023-05-22T08:41:24.437Z,10.10
2023-05-22T08:42:24.495Z,10.90
2023-05-22T08:43:24.427Z,11.60
2023-05-22T08:44:24.432Z,10.20
2023-05-22T08:45:24.433Z,9.70
2023-05-22T08:46:24.422Z,9.70
2023-05-22T08:47:24.466Z,10.00
2023-05-22T08:48:24.468Z,9.20
2023-05-22T08:49:24.787Z,8.90
2023-05-22T08:50:24.393Z,9.20
2023-05-22T08:51:24.414Z,9.40
2023-05-22T08:52:24.417Z,9.60
2023-05-22T08:53:24.390Z,9.20
2023-05-22T08:54:24.353Z,9.00
2023-05-22T08:55:24.352Z,8.70
2023-05-22T08:56:25.182Z,10.10
2023-05-22T08:57:24.342Z,9.50
2023-05-22T08:58:24.393Z,9.50
2023-05-22T08:59:24.343Z,9.20
2023-05-22T09:00:24.364Z,9.10
2023-05-22T09:01:24.311Z,9.00
2023-05-22T09:02:24.334Z,9.10
2023-05-22T09:03:24.432Z,9.80
2023-05-22T09:04:24.370Z,9.30
2023-05-22T09:05:24.480Z,9.50
2023-05-22T09:06:24.270Z,9.20
2023-05-22T09:07:24.274Z,9.40
2023-05-22T09:08:24.330Z,9.30
2023-05-22T09:09:24.263Z,9.10
2023-05-22T09:10:24.254Z,9.20
2023-05-22T09:11:24.277Z,9.30
2023-05-22T09:12:24.318Z,10.00
2023-05-22T09:13:24.272Z,10.20
2023-05-22T09:14:24.276Z,9.30
2023-05-22T09:15:24.236Z,9.40
2023-05-22T09:16:24.289Z,9.20
2023-05-22T09:17:24.341Z,9.90
2023-05-22T09:18:24.213Z,9.00
2023-05-22T09:19:24.240Z,8.90
2023-05-22T09:20:24.179Z,9.00
2023-05-22T09:21:29.948Z,9.00
2023-05-22T09:22:25.165Z,9.10
2023-05-22T09:23:24.186Z,9.90
2023-05-22T09:24:24.252Z,8.50
2023-05-22T09:25:24.154Z,8.60
2023-05-22T09:26:24.143Z,8.30
2023-05-22T09:27:24.155Z,8.90
2023-05-22T09:28:24.120Z,8.30
2023-05-22T09:29:24.118Z,7.90
2023-05-22T09:30:24.176Z,8.60
2023-05-22T09:31:24.151Z,8.80
2023-05-22T09:32:24.178Z,9.10
2023-05-22T09:33:24.134Z,8.60
2023-05-22T09:34:24.094Z,9.60
2023-05-22T09:35:24.132Z,9.10
2023-05-22T09:36:24.094Z,8.70
2023-05-22T09:37:24.061Z,9.20
2023-05-22T09:38:24.045Z,8.30
2023-05-22T09:39:24.078Z,9.00
2023-05-22T09:40:24.080Z,9.10
2023-05-22T09:41:24.044Z,9.20
2023-05-22T09:42:24.018Z,8.90
2023-05-22T09:43:24.026Z,8.80
2023-05-22T09:44:24.019Z,9.00
2023-05-22T09:45:24.037Z,8.60
2023-05-22T09:46:24.076Z,10.20
2023-05-22T09:47:24.054Z,9.00
2023-05-22T09:48:23.979Z,9.20
2023-05-22T09:55:25.023Z,8.90
2023-05-22T09:56:34.793Z,9.70
2023-05-22T09:57:24.941Z,8.90
2023-05-22T09:58:23.927Z,9.10
2023-05-22T09:59:23.937Z,9.30
2023-05-22T10:00:23.921Z,9.30
2023-05-22T10:01:23.923Z,8.80
2023-05-22T10:02:23.966Z,9.70
2023-05-22T10:03:23.893Z,9.40
2023-05-22T10:04:24.035Z,8.60
2023-05-22T10:05:23.842Z,9.10
2023-05-22T10:06:23.862Z,8.90
2023-05-22T10:07:23.884Z,8.80
2023-05-22T10:08:23.844Z,8.90
2023-05-22T10:09:23.907Z,8.90
2023-05-22T10:10:23.842Z,9.20
2023-05-22T10:11:23.832Z,8.60
2023-05-22T10:12:23.861Z,8.70
2023-05-22T10:13:23.837Z,9.40
2023-05-22T10:14:23.816Z,8.80
2023-05-22T10:15:23.799Z,9.30
2023-05-22T10:16:23.871Z,8.80
2023-05-22T10:17:23.834Z,9.00
2023-05-22T10:18:23.825Z,9.20
2023-05-22T10:19:23.826Z,8.70
2023-05-22T10:20:23.783Z,8.80
2023-05-22T10:21:23.763Z,8.70
2023-05-22T10:22:23.780Z,9.20
2023-05-22T10:23:23.832Z,8.80
2023-05-22T10:24:23.742Z,9.00
2023-05-22T10:25:23.760Z,8.90
2023-05-22T10:26:23.860Z,8.20
2023-05-22T10:27:23.788Z,8.70
2023-05-22T10:28:23.903Z,8.50
2023-05-22T10:29:23.762Z,8.40
2023-05-22T10:30:23.761Z,8.80
2023-05-22T10:31:23.748Z,9.20
2023-05-22T10:32:23.722Z,9.60
2023-05-22T10:33:23.848Z,9.60
2023-05-22T10:34:23.787Z,8.90
2023-05-22T10:35:23.683Z,8.10
2023-05-22T10:36:23.665Z,8.40
2023-05-22T10:37:23.667Z,7.90
2023-05-22T10:38:23.845Z,8.90
2023-05-22T10:39:23.761Z,8.60
2023-05-22T10:40:23.644Z,8.40
2023-05-22T10:41:23.624Z,9.10
2023-05-22T10:42:23.713Z,8.10
2023-05-22T10:43:23.695Z,8.70
2023-05-22T10:44:23.683Z,8.90
2023-05-22T10:45:23.595Z,8.80
2023-05-22T10:46:23.642Z,8.30
2023-05-22T10:47:23.613Z,8.40
2023-05-22T10:48:23.607Z,8.80
2023-05-22T10:49:24.042Z,9.10
2023-05-22T10:50:23.546Z,8.80
2023-05-22T10:51:23.573Z,8.90
2023-05-22T10:52:23.699Z,8.30
2023-05-22T10:53:23.597Z,8.60
2023-05-22T10:54:23.579Z,8.70
2023-05-22T10:55:23.585Z,8.30
2023-05-22T10:56:25.485Z,8.50
2023-05-22T10:57:23.524Z,9.00
2023-05-22T10:58:23.577Z,8.90
2023-05-22T10:59:23.609Z,9.30
2023-05-22T11:00:23.644Z,8.70
2023-05-22T11:01:23.586Z,8.50
2023-05-22T11:02:23.660Z,8.50
2023-05-22T11:03:23.521Z,8.60
2023-05-22T11:04:23.512Z,9.20
2023-05-22T11:05:23.563Z,8.90
2023-05-22T11:06:23.464Z,8.20
2023-05-22T11:07:23.465Z,8.80
2023-05-22T11:08:23.464Z,8.60
2023-05-22T11:09:23.492Z,8.20
2023-05-22T11:10:23.447Z,8.80
2023-05-22T11:11:23.539Z,8.60
2023-05-22T11:12:23.427Z,8.90
2023-05-22T11:13:23.478Z,8.60
2023-05-22T11:14:23.451Z,8.50
2023-05-22T11:15:23.471Z,8.50
2023-05-22T11:16:24.577Z,8.30
2023-05-22T11:17:24.523Z,7.90
2023-05-22T11:18:23.385Z,8.30
2023-05-22T11:19:24.234Z,8.60
2023-05-22T11:20:23.466Z,8.30
2023-05-22T11:21:23.409Z,8.20
2023-05-22T11:22:23.428Z,8.60
2023-05-22T11:23:23.373Z,8.70
2023-05-22T11:24:23.345Z,8.80
2023-05-22T11:25:23.366Z,9.00
2023-05-22T11:26:24.827Z,8.00
2023-05-22T11:27:23.388Z,8.70
2023-05-22T11:28:23.489Z,8.30
2023-05-22T11:29:23.399Z,8.50
2023-05-22T11:30:23.346Z,8.00
2023-05-22T11:31:23.576Z,8.50
2023-05-22T11:32:24.425Z,8.10
2023-05-22T11:33:23.448Z,8.20
2023-05-22T11:34:23.385Z,7.20
2023-05-22T11:35:23.390Z,6.70
2023-05-22T11:36:23.364Z,7.00
2023-05-22T11:37:23.429Z,7.00
2023-05-22T11:38:23.314Z,6.80
2023-05-22T11:39:23.328Z,6.60
2023-05-22T11:40:23.305Z,6.60
2023-05-22T11:41:23.328Z,7.10
2023-05-22T11:42:23.396Z,7.40
2023-05-22T11:43:23.341Z,6.70
2023-05-22T11:44:23.314Z,7.60
2023-05-22T11:45:23.294Z,7.20
2023-05-22T11:46:23.292Z,7.50
2023-05-22T11:47:23.453Z,6.80
2023-05-22T11:48:25.325Z,6.80
2023-05-22T11:49:23.278Z,6.60
2023-05-22T11:50:40.286Z,6.80
2023-05-22T11:51:24.147Z,6.50
2023-05-22T11:52:23.204Z,6.10
2023-05-22T11:53:23.227Z,6.30
2023-05-22T11:54:23.207Z,6.20
2023-05-22T11:55:23.190Z,6.00
2023-05-22T11:56:23.204Z,6.20
2023-05-22T11:57:23.124Z,6.10
2023-05-22T11:58:23.169Z,6.20
2023-05-22T11:59:23.133Z,6.40
2023-05-22T12:00:23.172Z,6.60
2023-05-22T12:01:23.104Z,6.40
2023-05-22T12:02:23.161Z,6.90
2023-05-22T12:03:25.217Z,6.40
2023-05-22T12:04:23.139Z,6.60
2023-05-22T12:05:23.086Z,7.00
2023-05-22T12:06:23.107Z,6.50
2023-05-22T12:07:23.063Z,7.30
2023-05-22T12:08:23.069Z,6.70
2023-05-22T12:09:23.114Z,6.90
2023-05-22T12:10:23.047Z,7.10
2023-05-22T12:11:23.039Z,7.10
2023-05-22T12:12:23.016Z,7.00
2023-05-22T12:13:23.026Z,7.30
2023-05-22T12:14:23.040Z,6.90
2023-05-22T12:15:23.002Z,6.90
2023-05-22T12:16:23.117Z,7.10
2023-05-22T12:17:23.038Z,7.60
2023-05-22T12:18:22.985Z,9.30
2023-05-22T12:19:23.108Z,7.70
2023-05-22T12:20:22.955Z,7.20
2023-05-22T12:21:22.976Z,7.60
2023-05-22T12:22:23.382Z,7.70
2023-05-22T12:23:22.936Z,7.40
2023-05-22T12:24:24.052Z,7.30
2023-05-22T12:25:22.997Z,7.40
2023-05-22T12:26:22.919Z,6.90
2023-05-22T12:27:22.943Z,7.40
2023-05-22T12:28:22.941Z,7.30
2023-05-22T12:29:22.934Z,7.10
2023-05-22T12:30:23.079Z,6.90
2023-05-22T12:31:22.950Z,7.60
2023-05-22T12:32:23.095Z,7.10
2023-05-22T12:33:22.882Z,7.20
2023-05-22T12:34:22.917Z,7.50
2023-05-22T12:35:22.950Z,7.10
2023-05-22T12:36:22.970Z,8.00
2023-05-22T12:37:22.917Z,7.30
2023-05-22T12:38:22.841Z,7.80
2023-05-22T12:39:22.844Z,7.30
2023-05-22T12:40:22.881Z,7.30
2023-05-22T12:41:22.895Z,7.00
2023-05-22T12:42:22.828Z,7.00
2023-05-22T12:43:22.862Z,7.40
2023-05-22T12:44:22.898Z,7.10
2023-05-22T12:45:22.875Z,6.80
2023-05-22T12:46:22.881Z,7.20
2023-05-22T12:47:22.871Z,7.30
2023-05-22T12:48:22.888Z,6.70
2023-05-22T12:49:22.778Z,7.00
2023-05-22T12:50:23.821Z,7.60
2023-05-22T12:51:22.879Z,6.60
2023-05-22T12:52:22.819Z,7.00
2023-05-22T12:53:22.808Z,6.90
2023-05-22T12:54:22.839Z,6.80
2023-05-22T12:55:22.719Z,7.60
2023-05-22T12:56:22.826Z,7.20
2023-05-22T12:57:22.739Z,7.90
2023-05-22T12:58:22.735Z,7.00
2023-05-22T12:59:22.781Z,7.50
2023-05-22T13:00:23.800Z,6.70
2023-05-22T13:01:22.760Z,7.30
2023-05-22T13:02:22.933Z,6.80
2023-05-22T13:03:25.814Z,6.80
2023-05-22T13:04:22.850Z,7.00
2023-05-22T13:05:23.831Z,7.70
2023-05-22T13:06:22.718Z,10.10
2023-05-22T13:07:22.852Z,6.50